createdAt,value
2023-09-14T00:00:52.413Z,69.88
2023-09-14T00:03:19.483Z,69.48
2023-09-14T00:05:48.189Z,69.86
2023-09-14T00:08:15.100Z,70.97
2023-09-14T00:10:42.138Z,70.86
2023-09-14T00:13:09.958Z,70.70
2023-09-14T00:15:36.985Z,71.36
2023-09-14T00:18:04.253Z,71.41
2023-09-14T00:20:31.566Z,71.61
2023-09-14T00:22:59.533Z,71.67
2023-09-14T00:25:26.770Z,71.81
2023-09-14T00:27:53.954Z,71.60
2023-09-14T00:30:21.410Z,71.21
2023-09-14T00:32:50.871Z,71.20
2023-09-14T00:35:17.886Z,71.84
2023-09-14T00:37:44.363Z,71.80
2023-09-14T00:40:11.626Z,71.47
2023-09-14T00:42:44.990Z,71.55
2023-09-14T00:45:19.593Z,71.70
2023-09-14T00:47:56.060Z,72.04
2023-09-14T00:50:22.779Z,71.65
2023-09-14T00:53:04.083Z,72.14
2023-09-14T00:55:30.915Z,72.00
2023-09-14T00:57:58.356Z,72.04
2023-09-14T01:00:25.476Z,72.17
2023-09-14T01:02:53.614Z,72.28
2023-09-14T01:05:21.650Z,71.56
2023-09-14T01:07:48.988Z,71.90
2023-09-14T01:10:16.550Z,71.87
2023-09-14T01:12:49.373Z,72.07
2023-09-14T01:15:23.415Z,72.44
2023-09-14T01:18:05.322Z,72.19
2023-09-14T01:21:09.359Z,72.20
2023-09-14T01:24:30.920Z,72.74
2023-09-14T01:26:57.728Z,72.43
2023-09-14T01:29:24.164Z,72.80
2023-09-14T01:31:50.624Z,72.76
2023-09-14T01:34:18.032Z,73.01
2023-09-14T01:36:54.889Z,72.77
2023-09-14T01:39:22.296Z,72.83
2023-09-14T01:41:55.796Z,73.21
2023-09-14T01:44:26.249Z,73.09
2023-09-14T01:46:54.819Z,73.30
2023-09-14T01:49:21.291Z,73.38
2023-09-14T01:51:47.825Z,73.44
2023-09-14T01:54:14.341Z,73.33
2023-09-14T01:56:41.431Z,73.20
2023-09-14T01:59:07.872Z,73.14
2023-09-14T02:01:34.312Z,73.27
2023-09-14T02:04:00.782Z,73.83
2023-09-14T02:06:27.262Z,73.73
2023-09-14T02:08:53.669Z,73.70
2023-09-14T02:11:20.099Z,73.63
2023-09-14T02:13:47.536Z,74.11
2023-09-14T02:16:14.119Z,74.40
2023-09-14T02:18:40.855Z,74.08
2023-09-14T02:21:07.288Z,73.84
2023-09-14T02:23:33.812Z,74.05
2023-09-14T02:26:00.285Z,74.05
2023-09-14T02:28:26.691Z,74.35
2023-09-14T02:30:53.138Z,74.21
2023-09-14T02:33:19.672Z,74.26
2023-09-14T02:35:48.435Z,74.27
2023-09-14T02:38:14.996Z,74.43
2023-09-14T02:40:41.462Z,74.43
2023-09-14T02:43:07.972Z,74.42
2023-09-14T02:45:34.546Z,74.28
2023-09-14T02:48:01.050Z,74.42
2023-09-14T02:50:27.720Z,74.18
2023-09-14T02:52:54.135Z,74.28
2023-09-14T02:55:20.554Z,74.47
2023-09-14T02:57:47.083Z,74.47
2023-09-14T03:00:18.096Z,74.58
2023-09-14T03:02:45.647Z,74.13
2023-09-14T03:05:12.447Z,74.91
2023-09-14T03:07:39.551Z,74.69
2023-09-14T03:10:07.617Z,74.66
2023-09-14T03:12:34.168Z,74.48
2023-09-14T03:15:00.656Z,74.66
2023-09-14T03:17:27.149Z,74.88
2023-09-14T03:19:54.451Z,74.70
2023-09-14T03:22:20.945Z,74.84
2023-09-14T03:24:47.463Z,74.70
2023-09-14T03:27:13.937Z,75.20
2023-09-14T03:29:40.415Z,74.51
2023-09-14T03:32:07.217Z,74.63
2023-09-14T03:34:33.746Z,75.14
2023-09-14T03:37:00.240Z,74.92
2023-09-14T03:39:26.836Z,74.89
2023-09-14T03:41:53.273Z,74.82
2023-09-14T03:44:19.684Z,74.82
2023-09-14T03:46:46.299Z,75.01
2023-09-14T03:49:12.876Z,75.24
2023-09-14T03:51:39.379Z,75.40
2023-09-14T03:54:07.900Z,75.47
2023-09-14T03:56:36.557Z,75.46
2023-09-14T03:59:03.369Z,75.58
2023-09-14T04:01:29.912Z,75.27
2023-09-14T04:03:56.485Z,75.48
2023-09-14T04:06:23.016Z,74.79
2023-09-14T04:08:49.444Z,74.77
2023-09-14T04:11:15.906Z,75.34
2023-09-14T04:13:42.432Z,75.35
2023-09-14T04:16:08.973Z,75.29
2023-09-14T04:18:38.698Z,75.04
2023-09-14T04:21:06.754Z,75.51
2023-09-14T04:23:33.258Z,75.83
2023-09-14T04:26:01.194Z,75.22
2023-09-14T04:28:27.765Z,75.11
2023-09-14T04:30:59.355Z,74.88
2023-09-14T04:33:26.443Z,75.47
2023-09-14T04:35:58.114Z,75.56
2023-09-14T04:38:24.681Z,75.38
2023-09-14T04:40:51.167Z,75.40
2023-09-14T04:43:17.658Z,75.30
2023-09-14T04:45:46.406Z,75.78
2023-09-14T04:48:13.027Z,75.77
2023-09-14T04:50:41.551Z,75.87
2023-09-14T04:53:07.991Z,75.94
2023-09-14T04:55:34.429Z,75.97
2023-09-14T04:58:00.892Z,76.07
2023-09-14T05:00:27.344Z,75.91
2023-09-14T05:02:54.328Z,76.05
2023-09-14T05:05:20.789Z,76.18
2023-09-14T05:07:47.332Z,75.75
2023-09-14T05:10:14.724Z,75.97
2023-09-14T05:12:41.293Z,75.86
2023-09-14T05:15:08.413Z,76.11
2023-09-14T05:17:35.778Z,75.98
2023-09-14T05:20:02.290Z,75.90
2023-09-14T05:22:29.350Z,75.65
2023-09-14T05:24:55.930Z,75.73
2023-09-14T05:27:22.445Z,75.91
2023-09-14T05:29:50.352Z,75.85
2023-09-14T05:32:16.873Z,76.02
2023-09-14T05:34:43.662Z,76.13
2023-09-14T05:37:10.380Z,76.51
2023-09-14T05:39:37.441Z,77.04
2023-09-14T05:42:04.255Z,77.42
2023-09-14T05:44:30.878Z,76.86
2023-09-14T05:46:57.497Z,77.08
2023-09-14T05:49:24.271Z,77.46
2023-09-14T05:51:50.907Z,77.39
2023-09-14T05:54:17.437Z,77.42
2023-09-14T05:56:43.902Z,77.33
2023-09-14T05:59:25.443Z,77.79
2023-09-14T06:01:57.022Z,77.73
2023-09-14T06:04:23.664Z,77.81
2023-09-14T06:06:50.817Z,78.25
2023-09-14T06:09:17.409Z,78.56
2023-09-14T06:11:44.292Z,78.77
2023-09-14T06:14:10.742Z,78.76
2023-09-14T06:16:37.249Z,78.90
2023-09-14T06:19:03.890Z,79.27
2023-09-14T06:21:30.379Z,78.96
2023-09-14T06:23:56.890Z,79.22
2023-09-14T06:26:23.350Z,78.82
2023-09-14T06:28:49.833Z,79.17
2023-09-14T06:31:16.413Z,79.28
2023-09-14T06:33:42.972Z,79.69
2023-09-14T06:36:09.706Z,79.87
2023-09-14T06:38:36.276Z,79.83
2023-09-14T06:41:02.763Z,79.65
2023-09-14T06:43:29.297Z,79.91
2023-09-14T06:45:56.407Z,79.61
2023-09-14T06:48:23.031Z,79.61
2023-09-14T06:50:49.458Z,79.34
2023-09-14T06:53:15.964Z,79.31
2023-09-14T06:55:43.455Z,79.90
2023-09-14T06:58:09.975Z,79.14
2023-09-14T07:00:37.235Z,78.69
2023-09-14T07:03:04.438Z,79.58
2023-09-14T07:05:32.072Z,78.53
2023-09-14T07:07:58.684Z,78.46
2023-09-14T07:10:25.745Z,77.84
2023-09-14T07:12:52.315Z,77.01
2023-09-14T07:15:18.878Z,78.23
2023-09-14T07:17:45.413Z,77.87
2023-09-14T07:20:12.035Z,78.13
2023-09-14T07:22:38.542Z,79.23
2023-09-14T07:25:09.892Z,77.70
2023-09-14T07:27:36.984Z,77.69
2023-09-14T07:30:03.752Z,77.33
2023-09-14T07:32:30.237Z,76.51
2023-09-14T07:34:58.701Z,76.65
2023-09-14T07:37:26.152Z,76.19
2023-09-14T07:39:52.683Z,76.10
2023-09-14T07:42:19.366Z,76.63
2023-09-14T07:44:45.818Z,76.86
2023-09-14T07:47:12.266Z,75.45
2023-09-14T07:49:38.709Z,76.36
2023-09-14T07:52:05.380Z,75.01
2023-09-14T07:54:35.591Z,74.26
2023-09-14T07:57:02.102Z,74.28
2023-09-14T07:59:29.241Z,71.35
2023-09-14T08:01:55.797Z,71.59
2023-09-14T08:04:22.338Z,67.60
2023-09-14T08:06:48.770Z,67.30
2023-09-14T08:09:15.208Z,63.93
2023-09-14T08:11:42.532Z,63.94
2023-09-14T08:14:09.087Z,61.82
2023-09-14T08:16:35.671Z,62.43
2023-09-14T08:19:02.254Z,59.85
2023-09-14T08:21:28.819Z,56.60
2023-09-14T08:23:55.512Z,56.08
2023-09-14T08:26:22.167Z,57.62
2023-09-14T08:28:48.607Z,53.48
2023-09-14T08:31:15.205Z,54.65
2023-09-14T08:33:41.879Z,52.79
2023-09-14T08:36:08.335Z,52.83
2023-09-14T08:38:34.881Z,50.33
2023-09-14T08:41:04.941Z,46.93
2023-09-14T08:43:32.432Z,48.26
2023-09-14T08:45:59.872Z,51.03
2023-09-14T08:48:30.271Z,48.69
2023-09-14T08:50:57.182Z,50.89
2023-09-14T08:53:24.578Z,49.99
2023-09-14T08:55:52.196Z,49.07
2023-09-14T08:58:19.420Z,49.39
2023-09-14T09:00:49.188Z,47.04
2023-09-14T09:03:15.894Z,46.62
2023-09-14T09:05:42.739Z,48.55
2023-09-14T09:08:09.280Z,46.21
2023-09-14T09:10:37.635Z,46.61
2023-09-14T09:13:05.282Z,44.22
2023-09-14T09:15:37.848Z,43.21
2023-09-14T09:18:09.330Z,47.64
2023-09-14T09:20:37.793Z,46.76
2023-09-14T09:23:04.637Z,46.40
2023-09-14T09:25:45.472Z,48.13
2023-09-14T09:28:12.060Z,44.27
2023-09-14T09:30:38.562Z,46.97
2023-09-14T09:33:05.599Z,46.05
2023-09-14T09:35:32.758Z,45.68
2023-09-14T09:38:00.308Z,44.64
2023-09-14T09:40:29.369Z,43.77
2023-09-14T09:42:56.216Z,42.22
2023-09-14T09:45:27.169Z,43.68
2023-09-14T09:47:54.499Z,41.86
2023-09-14T09:50:22.640Z,45.19
2023-09-14T09:52:50.011Z,43.60
2023-09-14T09:55:27.336Z,43.72
2023-09-14T09:57:55.439Z,44.73
2023-09-14T10:00:23.187Z,45.49
2023-09-14T10:02:54.414Z,43.83
2023-09-14T10:05:41.037Z,44.94
2023-09-14T10:08:19.147Z,43.92
2023-09-14T10:10:53.387Z,48.03
2023-09-14T10:13:24.849Z,49.38
2023-09-14T10:15:56.206Z,47.29
2023-09-14T10:18:25.388Z,47.65
2023-09-14T10:20:53.617Z,48.06
2023-09-14T10:23:21.858Z,49.41
2023-09-14T10:25:50.934Z,48.67
2023-09-14T10:28:18.486Z,48.23
2023-09-14T10:30:46.509Z,51.32
2023-09-14T10:33:16.668Z,46.22
2023-09-14T10:35:43.347Z,45.86
2023-09-14T10:38:11.935Z,48.38
2023-09-14T10:40:38.662Z,49.18
2023-09-14T10:43:09.136Z,48.93
2023-09-14T10:45:41.249Z,48.52
2023-09-14T10:48:11.879Z,45.13
2023-09-14T10:50:38.461Z,44.51
2023-09-14T10:53:05.031Z,49.01
2023-09-14T10:55:36.389Z,48.72
2023-09-14T10:58:03.303Z,48.70
2023-09-14T11:00:55.356Z,48.44
2023-09-14T11:03:24.852Z,49.64
2023-09-14T11:05:54.748Z,50.56
2023-09-14T11:08:23.313Z,51.62
2023-09-14T11:10:58.990Z,52.04
2023-09-14T11:13:27.485Z,49.46
2023-09-14T11:16:07.749Z,51.65
2023-09-14T11:18:52.822Z,52.70
2023-09-14T11:21:33.592Z,52.43
2023-09-14T11:24:03.910Z,52.85
2023-09-14T11:26:31.684Z,51.98
2023-09-14T11:29:01.575Z,52.75
2023-09-14T11:31:43.319Z,52.36
2023-09-14T11:34:24.091Z,52.92
2023-09-14T11:36:53.527Z,51.67
2023-09-14T11:39:25.772Z,51.11
2023-09-14T11:41:54.837Z,52.36
2023-09-14T11:44:44.250Z,54.51
2023-09-14T11:47:14.930Z,51.77
2023-09-14T11:49:42.970Z,53.43
2023-09-14T11:52:12.014Z,54.94
2023-09-14T11:54:38.566Z,50.70
2023-09-14T11:57:06.254Z,53.55
2023-09-14T11:59:33.343Z,53.76
2023-09-14T12:02:01.416Z,51.26
2023-09-14T12:04:29.322Z,53.39
2023-09-14T12:06:56.610Z,53.75
2023-09-14T12:09:40.416Z,55.08
2023-09-14T12:12:14.948Z,53.13
2023-09-14T12:14:44.665Z,57.19
2023-09-14T12:17:25.683Z,49.79
2023-09-14T12:19:56.457Z,53.57
2023-09-14T12:22:25.779Z,49.87
2023-09-14T12:24:52.581Z,49.10
2023-09-14T12:27:19.564Z,50.08
2023-09-14T12:29:47.340Z,49.75
2023-09-14T12:32:14.237Z,50.19
2023-09-14T12:34:40.808Z,48.21
2023-09-14T12:37:07.860Z,49.57
2023-09-14T12:39:35.068Z,47.44
2023-09-14T12:42:02.654Z,47.67
2023-09-14T12:44:29.233Z,47.40
2023-09-14T12:46:55.773Z,47.56
2023-09-14T12:49:23.238Z,47.13
2023-09-14T12:51:50.645Z,49.00
2023-09-14T12:54:20.643Z,50.06
2023-09-14T12:56:47.126Z,50.62
2023-09-14T12:59:13.603Z,49.37
2023-09-14T13:01:41.854Z,45.93
2023-09-14T13:04:11.289Z,50.18
2023-09-14T13:06:37.844Z,46.57
2023-09-14T13:09:09.663Z,45.86
2023-09-14T13:11:38.363Z,47.56
2023-09-14T13:14:08.573Z,45.76
2023-09-14T13:16:35.174Z,46.96
2023-09-14T13:19:02.566Z,46.27
2023-09-14T13:21:29.396Z,45.72
2023-09-14T13:23:56.683Z,47.53
2023-09-14T13:26:23.775Z,48.68
2023-09-14T13:28:50.300Z,48.07
2023-09-14T13:31:16.854Z,48.27
2023-09-14T13:33:43.565Z,49.13
2023-09-14T13:36:10.203Z,50.01
2023-09-14T13:38:36.700Z,49.86
2023-09-14T13:41:05.083Z,50.74
2023-09-14T13:43:31.545Z,50.52
2023-09-14T13:45:58.103Z,51.12
2023-09-14T13:48:28.330Z,51.84
2023-09-14T13:50:56.007Z,52.46
2023-09-14T13:53:22.558Z,53.15
2023-09-14T13:55:48.999Z,53.44
2023-09-14T13:58:15.564Z,52.88
2023-09-14T14:00:42.448Z,52.70
2023-09-14T14:03:10.965Z,52.68
2023-09-14T14:05:40.252Z,52.22
2023-09-14T14:08:08.359Z,51.12
2023-09-14T14:10:38.143Z,50.71
2023-09-14T14:13:05.034Z,50.41
2023-09-14T14:15:32.073Z,49.23
2023-09-14T14:17:58.775Z,50.39
2023-09-14T14:20:25.406Z,47.70
2023-09-14T14:22:51.916Z,48.73
2023-09-14T14:25:18.461Z,47.88
2023-09-14T14:27:45.289Z,47.09
2023-09-14T14:30:13.250Z,47.40
2023-09-14T14:32:40.784Z,48.99
2023-09-14T14:35:08.031Z,49.97
2023-09-14T14:37:34.743Z,49.73
2023-09-14T14:40:01.422Z,50.31
2023-09-14T14:42:28.057Z,50.96
2023-09-14T14:44:54.684Z,51.41
2023-09-14T14:47:21.162Z,52.67
2023-09-14T14:49:49.268Z,51.25
2023-09-14T14:52:16.212Z,51.56
2023-09-14T14:54:42.790Z,52.96
2023-09-14T14:57:09.378Z,51.48
2023-09-14T14:59:36.705Z,50.72
2023-09-14T15:02:03.371Z,50.49
2023-09-14T15:04:30.140Z,50.80
2023-09-14T15:06:56.871Z,52.16
2023-09-14T15:09:23.399Z,52.29
2023-09-14T15:11:50.772Z,52.07
2023-09-14T15:14:17.316Z,53.57
2023-09-14T15:16:43.899Z,54.70
2023-09-14T15:19:10.633Z,54.25
2023-09-14T15:21:37.084Z,55.47
2023-09-14T15:24:03.897Z,54.53
2023-09-14T15:26:30.424Z,54.43
2023-09-14T15:29:00.519Z,53.33
2023-09-14T15:31:27.089Z,52.80
2023-09-14T15:33:54.487Z,52.45
2023-09-14T15:36:22.344Z,54.55
2023-09-14T15:38:49.158Z,53.25
2023-09-14T15:41:18.464Z,52.28
2023-09-14T15:43:45.137Z,51.41
2023-09-14T15:46:14.800Z,51.81
2023-09-14T15:48:41.858Z,52.97
2023-09-14T15:51:08.377Z,53.02
2023-09-14T15:53:37.144Z,52.86
2023-09-14T15:56:04.511Z,52.16
2023-09-14T15:58:30.977Z,52.62
2023-09-14T16:01:00.493Z,51.13
2023-09-14T16:03:27.674Z,52.32
2023-09-14T16:05:54.828Z,51.56
2023-09-14T16:08:21.337Z,51.49
2023-09-14T16:10:48.190Z,51.18
2023-09-14T16:13:14.737Z,51.62
2023-09-14T16:15:44.133Z,51.44
2023-09-14T16:18:10.864Z,51.67
2023-09-14T16:20:37.419Z,52.53
2023-09-14T16:23:03.975Z,52.89
2023-09-14T16:25:30.481Z,52.88
2023-09-14T16:28:00.275Z,53.44
2023-09-14T16:30:27.135Z,53.41
2023-09-14T16:32:53.722Z,53.56
2023-09-14T16:35:20.329Z,52.52
2023-09-14T16:37:46.832Z,52.61
2023-09-14T16:40:13.373Z,52.98
2023-09-14T16:42:39.937Z,53.81
2023-09-14T16:45:06.780Z,54.18
2023-09-14T16:47:34.069Z,54.24
2023-09-14T16:50:01.948Z,54.95
2023-09-14T16:52:29.754Z,54.20
2023-09-14T16:54:56.595Z,55.51
2023-09-14T16:57:25.425Z,55.95
2023-09-14T16:59:52.550Z,55.60
2023-09-14T17:02:38.549Z,56.36
2023-09-14T17:05:05.450Z,56.57
2023-09-14T17:07:32.092Z,56.55
2023-09-14T17:10:01.685Z,57.72
2023-09-14T17:12:28.300Z,57.43
2023-09-14T17:14:55.485Z,57.40
2023-09-14T17:17:21.978Z,57.45
2023-09-14T17:19:48.588Z,57.61
2023-09-14T17:22:17.226Z,57.77
2023-09-14T17:24:43.692Z,57.86
2023-09-14T17:27:10.921Z,58.48
2023-09-14T17:29:38.386Z,59.01
2023-09-14T17:32:06.814Z,58.91
2023-09-14T17:34:34.118Z,58.94
2023-09-14T17:37:00.558Z,59.99
2023-09-14T17:39:27.052Z,60.24
2023-09-14T17:41:53.836Z,59.29
2023-09-14T17:44:20.493Z,59.97
2023-09-14T17:46:47.121Z,60.55
2023-09-14T17:49:13.722Z,61.87
2023-09-14T17:51:40.291Z,61.70
2023-09-14T17:54:06.976Z,61.89
2023-09-14T17:56:33.650Z,62.32
2023-09-14T17:59:01.184Z,62.75
2023-09-14T18:01:27.794Z,62.72
2023-09-14T18:03:54.770Z,63.13
2023-09-14T18:06:21.505Z,63.20
2023-09-14T18:08:48.483Z,62.72
2023-09-14T18:11:15.381Z,62.88
2023-09-14T18:13:41.914Z,63.32
2023-09-14T18:16:08.545Z,64.55
2023-09-14T18:18:35.093Z,64.09
2023-09-14T18:21:01.702Z,64.95
2023-09-14T18:23:28.927Z,65.32
2023-09-14T18:25:56.527Z,64.93
2023-09-14T18:28:26.634Z,65.41
2023-09-14T18:30:54.298Z,65.33
2023-09-14T18:33:20.827Z,65.69
2023-09-14T18:35:47.298Z,66.57
2023-09-14T18:38:13.790Z,66.14
2023-09-14T18:40:40.321Z,65.88
2023-09-14T18:43:06.938Z,66.75
2023-09-14T18:45:33.501Z,67.01
2023-09-14T18:48:01.680Z,66.80
2023-09-14T18:50:28.154Z,66.80
2023-09-14T18:52:54.585Z,67.70
2023-09-14T18:55:23.482Z,67.82
2023-09-14T18:57:50.022Z,67.54
2023-09-14T19:00:16.692Z,68.15
2023-09-14T19:02:45.311Z,68.51
2023-09-14T19:05:13.243Z,68.07
2023-09-14T19:07:40.446Z,68.66
2023-09-14T19:10:07.776Z,68.44
2023-09-14T19:12:34.405Z,68.25
2023-09-14T19:15:00.891Z,68.03
2023-09-14T19:17:28.686Z,68.40
2023-09-14T19:19:55.205Z,68.55
2023-09-14T19:22:21.681Z,68.45
2023-09-14T19:24:48.162Z,68.17
2023-09-14T19:27:14.696Z,68.37
2023-09-14T19:29:41.417Z,69.06
2023-09-14T19:32:07.991Z,69.20
2023-09-14T19:34:36.340Z,68.67
2023-09-14T19:37:04.489Z,69.00
2023-09-14T19:39:31.121Z,69.09
2023-09-14T19:41:57.593Z,69.26
2023-09-14T19:44:24.206Z,69.34
2023-09-14T19:46:50.779Z,69.70
2023-09-14T19:49:17.403Z,69.20
2023-09-14T19:51:43.924Z,69.39
2023-09-14T19:54:11.318Z,70.06
2023-09-14T19:56:37.796Z,69.54
2023-09-14T19:59:04.373Z,69.87
2023-09-14T20:01:30.971Z,69.93
2023-09-14T20:03:57.533Z,70.30
2023-09-14T20:06:25.999Z,70.70
2023-09-14T20:08:52.746Z,70.41
2023-09-14T20:11:20.211Z,70.81
2023-09-14T20:13:46.937Z,70.75
2023-09-14T20:16:13.459Z,70.60
2023-09-14T20:18:43.033Z,70.81
2023-09-14T20:21:09.854Z,70.95
2023-09-14T20:23:36.385Z,71.21
2023-09-14T20:26:03.135Z,70.75
2023-09-14T20:28:29.550Z,71.31
2023-09-14T20:30:56.060Z,71.26
2023-09-14T20:33:23.100Z,71.11
2023-09-14T20:35:49.752Z,71.46
2023-09-14T20:38:19.079Z,71.57
2023-09-14T20:40:47.435Z,71.48
2023-09-14T20:43:14.785Z,71.72
2023-09-14T20:45:42.152Z,71.25
2023-09-14T20:48:16.145Z,71.92
2023-09-14T20:50:43.012Z,72.11
2023-09-14T20:53:09.748Z,71.92
2023-09-14T20:55:43.909Z,71.79
2023-09-14T20:58:10.588Z,72.54
2023-09-14T21:00:37.831Z,71.80
2023-09-14T21:03:05.096Z,72.29
2023-09-14T21:05:31.872Z,72.04
2023-09-14T21:07:59.550Z,72.16
2023-09-14T21:10:26.056Z,71.94
2023-09-14T21:12:52.584Z,72.08
2023-09-14T21:15:19.317Z,72.32
2023-09-14T21:17:45.793Z,72.28
2023-09-14T21:20:12.368Z,72.49
2023-09-14T21:22:39.930Z,72.39
2023-09-14T21:25:07.587Z,73.00
2023-09-14T21:27:34.550Z,72.46
2023-09-14T21:30:01.213Z,72.68
2023-09-14T21:32:29.051Z,72.33
2023-09-14T21:34:55.728Z,72.61
2023-09-14T21:37:22.187Z,72.80
2023-09-14T21:39:48.697Z,72.73
2023-09-14T21:42:15.516Z,72.69
2023-09-14T21:44:42.116Z,72.69
2023-09-14T21:47:08.766Z,72.57
2023-09-14T21:49:46.303Z,72.89
2023-09-14T21:52:13.400Z,72.86
2023-09-14T21:54:40.498Z,73.08
2023-09-14T21:57:08.315Z,73.36
2023-09-14T21:59:36.068Z,73.30
2023-09-14T22:02:04.208Z,72.85
2023-09-14T22:04:30.985Z,73.55
2023-09-14T22:06:57.632Z,73.75
2023-09-14T22:09:24.929Z,73.45
2023-09-14T22:11:52.809Z,73.46
2023-09-14T22:14:19.366Z,73.54
2023-09-14T22:16:46.466Z,73.90
2023-09-14T22:19:13.050Z,73.53
2023-09-14T22:21:45.264Z,73.44
2023-09-14T22:24:11.824Z,73.92
2023-09-14T22:26:38.498Z,73.73
2023-09-14T22:29:05.278Z,73.93
2023-09-14T22:31:31.915Z,73.88
2023-09-14T22:33:58.582Z,73.76
2023-09-14T22:36:25.029Z,73.62
2023-09-14T22:38:51.501Z,73.96
2023-09-14T22:41:18.044Z,74.07
2023-09-14T22:43:44.502Z,73.51
2023-09-14T22:46:11.339Z,73.81
2023-09-14T22:48:39.099Z,73.65
2023-09-14T22:51:14.581Z,73.98
2023-09-14T22:53:41.758Z,74.15
2023-09-14T22:56:15.763Z,73.71
2023-09-14T22:58:43.524Z,74.01
2023-09-14T23:01:10.229Z,74.21
2023-09-14T23:03:38.744Z,73.86
2023-09-14T23:06:06.829Z,73.94
2023-09-14T23:08:35.236Z,73.91
2023-09-14T23:11:04.763Z,74.07
2023-09-14T23:13:31.363Z,74.17
2023-09-14T23:15:57.957Z,73.96
2023-09-14T23:18:24.737Z,74.20
2023-09-14T23:20:52.611Z,74.32
2023-09-14T23:23:19.240Z,73.80
2023-09-14T23:25:45.749Z,74.07
2023-09-14T23:28:12.185Z,73.88
2023-09-14T23:30:38.724Z,73.82
2023-09-14T23:33:05.580Z,73.47
2023-09-14T23:35:33.040Z,73.67
2023-09-14T23:37:59.547Z,73.90
2023-09-14T23:40:33.116Z,73.31
2023-09-14T23:43:04.961Z,73.93
2023-09-14T23:45:32.321Z,74.04
2023-09-14T23:47:58.857Z,73.56
2023-09-14T23:50:26.018Z,73.90
2023-09-14T23:52:53.466Z,73.63
2023-09-14T23:55:20.354Z,73.66
2023-09-14T23:57:47.261Z,73.47
